Time;durP1;ratioP1;P1;durP2;ratioP2;P2;SDS_P1;SDS_P2;PMS_P1;PMS_P2;Temp;Humidity;BMP_temperature;BMP_pressure;BME280_temperature;BME280_humidity;BME280_pressure;Samples;Min_cycle;Max_cycle;Signal;HPM_P1;HPM_P2
2023/04/04 00:01:34;;;;;;;1.92;0.70;;;;;;;-148.88;73.21;78414.59;5094974;28;20103;-74
2023/04/04 00:03:59;;;;;;;3.38;1.30;;;;;;;-148.88;72.67;78410.53;5094555;28;20107;-74
2023/04/04 00:06:27;;;;;;;3.17;1.00;;;;;;;-148.88;72.52;78404.44;5094738;28;20043;-74
2023/04/04 00:08:52;;;;;;;5.82;1.20;;;;;;;-148.88;72.62;78404.44;5094598;28;20028;-74
2023/04/04 00:11:18;;;;;;;4.55;2.00;;;;;;;-148.88;72.93;78414.59;5095163;28;20089;-74
2023/04/04 00:13:44;;;;;;;3.50;1.38;;;;;;;-148.88;72.72;78426.81;5094827;28;20381;-74
2023/04/04 00:16:10;;;;;;;2.50;1.20;;;;;;;-148.88;72.47;78414.59;5092959;28;20020;-74
2023/04/04 00:18:35;;;;;;;6.45;1.38;;;;;;;-148.88;72.63;78414.59;5092982;28;20106;-74
2023/04/04 00:21:01;;;;;;;3.03;1.02;;;;;;;-148.88;72.09;78414.59;5093494;28;20442;-74
2023/04/04 00:23:26;;;;;;;8.02;2.88;;;;;;;-148.88;72.40;78406.47;5092930;28;20020;-74
2023/04/04 00:25:52;;;;;;;7.97;3.22;;;;;;;-148.88;72.20;78410.53;5094076;28;20019;-74
2023/04/04 00:28:18;;;;;;;6.00;1.55;;;;;;;-148.88;72.42;78412.56;5094160;28;20039;-74
2023/04/04 00:30:43;;;;;;;2.97;1.23;;;;;;;-148.88;72.53;78418.69;5094356;28;20055;-74
2023/04/04 00:33:09;;;;;;;3.10;1.23;;;;;;;-148.88;72.74;78416.63;5094162;28;20120;-74
2023/04/04 00:35:34;;;;;;;3.58;1.38;;;;;;;-148.88;72.85;78410.53;5092599;28;20469;-74
2023/04/04 00:37:59;;;;;;;4.55;1.73;;;;;;;-148.88;71.98;78410.53;5093960;28;20020;-74
2023/04/04 00:40:25;;;;;;;4.68;1.48;;;;;;;-148.88;72.05;78410.53;5093743;28;20020;-74
2023/04/04 00:46:14;;;;;;;3.33;1.10;;;;;;;-148.88;72.92;78422.75;5093872;28;20054;-74
2023/04/04 00:48:41;;;;;;;3.92;1.30;;;;;;;-148.88;72.77;78420.72;5093601;28;20032;-74
2023/04/04 00:51:06;;;;;;;3.38;1.42;;;;;;;-148.88;73.64;78426.81;5092461;28;20057;-74
2023/04/04 00:53:32;;;;;;;7.90;1.35;;;;;;;-148.88;73.62;78430.88;5093610;28;20376;-74
2023/04/04 00:55:57;;;;;;;4.90;1.45;;;;;;;-148.88;73.74;78434.94;5092209;28;20022;-74
2023/04/04 00:58:25;;;;;;;2.78;1.30;;;;;;;-148.88;73.89;78443.06;5093515;28;20039;-74
2023/04/04 01:00:51;;;;;;;4.13;1.50;;;;;;;-148.88;74.91;78441.03;5093515;28;20032;-74
2023/04/04 01:03:17;;;;;;;5.53;1.58;;;;;;;-148.88;75.16;78447.13;5093925;28;20354;-74
2023/04/04 01:05:42;;;;;;;4.10;1.17;;;;;;;-148.88;75.75;78443.06;5093851;28;20070;-74
2023/04/04 01:08:08;;;;;;;3.22;1.05;;;;;;;-148.88;75.03;78443.06;5093439;28;20024;-74
2023/04/04 01:10:33;;;;;;;3.70;1.52;;;;;;;-148.88;76.07;78443.06;5093497;28;20020;-74
2023/04/04 01:12:59;;;;;;;3.58;1.20;;;;;;;-148.88;75.31;78451.19;5093523;28;20027;-74
2023/04/04 01:15:24;;;;;;;5.63;1.20;;;;;;;-148.88;75.47;78445.09;5092089;28;20030;-74
2023/04/04 01:17:55;;;;;;;3.75;1.45;;;;;;;-148.88;76.23;78445.09;5093425;28;20032;-74
2023/04/04 01:20:25;;;;;;;3.75;1.27;;;;;;;-148.88;75.78;78443.06;5093690;28;20198;-74
2023/04/04 01:22:52;;;;;;;4.38;1.45;;;;;;;-148.88;75.21;78449.16;5092045;28;20055;-74
2023/04/04 01:25:20;;;;;;;2.92;1.20;;;;;;;-148.88;76.12;78441.03;5093421;28;20020;-75
2023/04/04 01:27:45;;;;;;;13.63;1.38;;;;;;;-148.88;76.94;78439.00;5093413;28;20441;-75
2023/04/04 01:30:13;;;;;;;6.50;1.33;;;;;;;-148.88;77.46;78443.06;5093049;28;20035;-75
2023/04/04 01:32:44;;;;;;;4.18;1.42;;;;;;;-148.88;77.03;78443.06;5093240;28;20020;-75
2023/04/04 01:35:45;;;;;;;5.38;1.20;;;;;;;-148.88;76.75;78443.06;5093011;28;20032;-75
2023/04/04 01:38:34;;;;;;;4.60;1.23;;;;;;;-148.88;77.70;78434.94;5050680;28;20084;-74
2023/04/04 01:41:07;;;;;;;3.20;1.25;;;;;;;-148.88;78.16;78441.03;5091034;28;20032;-75
2023/04/04 01:43:32;;;;;;;3.13;1.15;;;;;;;-148.88;78.29;78441.03;5092779;28;20032;-74
2023/04/04 01:45:59;;;;;;;4.32;1.50;;;;;;;-148.88;77.94;78439.00;5093110;28;20078;-75
2023/04/04 01:48:25;;;;;;;2.20;0.90;;;;;;;-148.88;77.75;78447.13;5091604;28;20039;-74
2023/04/04 01:50:51;;;;;;;2.40;1.30;;;;;;;-148.88;77.17;78457.28;5091431;28;20020;-75
2023/04/04 01:53:16;;;;;;;2.85;1.30;;;;;;;-148.88;77.49;78467.47;5092753;28;20100;-75
2023/04/04 01:55:42;;;;;;;3.53;1.40;;;;;;;-148.88;78.27;78479.66;5092772;28;20550;-75
2023/04/04 01:58:08;;;;;;;5.57;1.13;;;;;;;-148.88;77.95;78471.53;5092847;28;20099;-75
2023/04/04 02:00:33;;;;;;;2.70;1.20;;;;;;;-148.88;78.75;78487.78;5091441;28;20111;-75
2023/04/04 02:02:59;;;;;;;2.60;1.20;;;;;;;-148.88;79.62;78485.75;5091442;28;20036;-75
2023/04/04 02:05:24;;;;;;;4.20;1.50;;;;;;;-148.88;79.35;78483.72;5091323;28;20028;-75
2023/04/04 02:07:52;;;;;;;2.80;1.13;;;;;;;-148.88;80.09;78481.69;5092494;28;20043;-74
2023/04/04 02:10:17;;;;;;;3.88;1.80;;;;;;;-148.88;80.25;78485.75;5091439;28;20017;-74
2023/04/04 02:12:43;;;;;;;5.60;1.30;;;;;;;-148.88;79.83;78487.78;5092665;28;20028;-74
2023/04/04 02:15:09;;;;;;;4.55;1.70;;;;;;;-148.88;79.73;78491.84;5092611;28;20027;-74
2023/04/04 02:17:34;;;;;;;5.95;1.50;;;;;;;-148.88;79.62;78499.97;5092667;28;20031;-75
2023/04/04 02:20:00;;;;;;;3.40;1.30;;;;;;;-148.88;80.03;78506.06;5092981;28;20031;-74
2023/04/04 02:22:25;;;;;;;1.75;0.98;;;;;;;-148.88;79.58;78524.38;5091147;28;20016;-74
2023/04/04 02:24:52;;;;;;;2.15;1.15;;;;;;;-148.88;80.40;78536.56;5092461;28;20055;-74
2023/04/04 02:27:18;;;;;;;4.80;1.42;;;;;;;-148.88;81.04;78532.50;5092766;28;20073;-74
2023/04/04 02:29:43;;;;;;;3.88;1.23;;;;;;;-148.88;81.71;78516.25;5092498;28;20020;-74
2023/04/04 02:32:08;;;;;;;6.95;1.42;;;;;;;-148.88;82.07;78520.31;5092485;28;20027;-74
2023/04/04 02:34:33;;;;;;;5.75;1.52;;;;;;;-148.88;80.95;78520.31;5092387;28;20020;-74
2023/04/04 02:36:59;;;;;;;4.82;1.67;;;;;;;-148.88;80.62;78542.66;5092525;28;20077;-75
2023/04/04 02:39:24;;;;;;;4.57;1.30;;;;;;;-148.88;81.66;78552.81;5092299;28;20028;-76
2023/04/04 02:41:50;;;;;;;2.88;1.20;;;;;;;-148.88;82.44;78532.50;5090939;28;20055;-75
2023/04/04 02:44:15;;;;;;;5.07;1.23;;;;;;;-148.88;81.75;78540.63;5092834;28;20055;-76
2023/04/04 02:46:41;;;;;;;4.22;1.17;;;;;;;-148.88;81.95;78548.75;5096193;28;20028;-75
2023/04/04 02:49:06;;;;;;;6.47;1.17;;;;;;;-148.88;83.43;78560.97;5096113;28;20046;-75
2023/04/04 02:51:32;;;;;;;3.25;1.00;;;;;;;-148.88;84.05;78560.97;5095959;28;20496;-75
2023/04/04 02:53:58;;;;;;;2.47;1.27;;;;;;;-148.88;85.28;78548.75;5096224;28;20024;-75
2023/04/04 02:56:23;;;;;;;3.42;1.20;;;;;;;-148.88;84.77;78530.47;5094510;28;20111;-75
2023/04/04 02:58:48;;;;;;;4.10;1.45;;;;;;;-148.88;84.62;78524.38;5095857;28;20016;-75
2023/04/04 03:01:14;;;;;;;3.13;1.10;;;;;;;-148.88;84.04;78520.31;5095813;28;20500;-75
2023/04/04 03:03:39;;;;;;;2.22;1.33;;;;;;;-148.88;84.26;78516.25;5096174;28;20470;-75
2023/04/04 03:06:04;;;;;;;6.18;1.40;;;;;;;-148.88;83.81;78518.28;5101844;22;20173;-78
2023/04/04 03:08:30;;;;;;;5.20;1.63;;;;;;;-148.88;83.58;78526.41;5077595;28;20390;-80
2023/04/04 03:10:55;;;;;;;6.78;1.35;;;;;;;-148.88;82.67;78536.56;5079343;28;20127;-80
2023/04/04 03:13:20;;;;;;;2.33;1.08;;;;;;;-148.88;83.75;78565.03;5059972;28;20020;-80
2023/04/04 03:15:46;;;;;;;3.70;1.60;;;;;;;-148.88;83.70;78565.03;5059907;28;20505;-80
2023/04/04 03:18:11;;;;;;;4.28;1.95;;;;;;;-148.88;83.80;78563.00;5078106;28;20036;-80
2023/04/04 03:20:36;;;;;;;3.40;1.23;;;;;;;-148.88;84.55;78544.69;5077972;28;20043;-80
2023/04/04 03:23:02;;;;;;;3.28;1.30;;;;;;;-148.88;84.23;78540.63;5078515;28;20031;-78
2023/04/04 03:25:27;;;;;;;5.47;1.30;;;;;;;-148.88;83.97;78530.47;5059609;28;20021;-79
2023/04/04 03:27:53;;;;;;;3.17;1.40;;;;;;;-148.88;83.23;78530.47;5059429;28;20371;-79
2023/04/04 03:30:18;;;;;;;3.13;1.23;;;;;;;-148.88;83.63;78524.38;5059259;28;20020;-79
2023/04/04 03:32:43;;;;;;;3.03;1.48;;;;;;;-148.88;82.57;78536.56;5077374;28;20020;-79
2023/04/04 03:35:09;;;;;;;6.63;1.55;;;;;;;-148.88;83.94;78540.63;5077607;28;20063;-79
2023/04/04 03:37:34;;;;;;;3.00;1.65;;;;;;;-148.88;83.49;78544.69;5077291;28;20111;-79
2023/04/04 03:40:00;;;;;;;2.80;1.52;;;;;;;-148.88;84.25;78552.81;5059294;28;20032;-79
2023/04/04 03:42:28;;;;;;;3.90;1.70;;;;;;;-148.88;84.31;78552.81;5077345;28;20035;-78
2023/04/04 03:44:53;;;;;;;4.43;1.65;;;;;;;-148.88;84.45;78556.88;5075935;28;20028;-78
2023/04/04 03:47:19;;;;;;;2.92;1.10;;;;;;;-148.88;84.34;78548.75;5075889;28;20077;-78
2023/04/04 03:49:44;;;;;;;4.78;1.30;;;;;;;-148.88;84.88;78540.63;5076401;28;20020;-78
2023/04/04 03:52:10;;;;;;;3.67;1.48;;;;;;;-148.88;84.96;78540.63;5058674;28;20483;-78
2023/04/04 03:54:35;;;;;;;3.60;1.70;;;;;;;-148.88;86.08;78536.56;5075960;28;20106;-78
2023/04/04 03:57:00;;;;;;;4.25;1.60;;;;;;;-148.88;85.21;78536.56;5076350;28;20071;-78
2023/04/04 03:59:26;;;;;;;4.63;1.65;;;;;;;-148.88;84.66;78556.88;5058125;28;20035;-78
2023/04/04 04:01:51;;;;;;;3.63;1.42;;;;;;;-148.88;85.04;78540.63;5058572;28;20491;-79
2023/04/04 04:04:17;;;;;;;3.30;1.50;;;;;;;-148.88;85.18;78530.47;5076958;28;20494;-83
2023/04/04 04:06:42;;;;;;;3.20;1.20;;;;;;;-148.88;84.07;78532.50;5058713;28;20380;-79
2023/04/04 04:09:08;;;;;;;3.40;1.70;;;;;;;-148.88;85.64;78538.59;5076039;28;20020;-80
2023/04/04 04:11:33;;;;;;;4.50;1.80;;;;;;;-148.88;85.05;78548.75;5077067;28;20021;-79
2023/04/04 04:13:59;;;;;;;4.07;1.77;;;;;;;-148.88;85.00;78560.97;5076539;28;20052;-79
2023/04/04 04:16:25;;;;;;;4.95;1.70;;;;;;;-148.88;85.16;78558.94;5076771;28;20035;-79
2023/04/04 04:18:50;;;;;;;6.63;1.77;;;;;;;-148.88;86.26;78548.75;5058277;28;20368;-80
2023/04/04 04:21:15;;;;;;;5.95;1.58;;;;;;;-148.88;85.25;78556.88;5074844;28;20029;-78
2023/04/04 04:23:41;;;;;;;6.35;1.45;;;;;;;-148.88;85.71;78548.75;5075598;28;20028;-79
2023/04/04 04:26:06;;;;;;;8.52;2.28;;;;;;;-148.88;85.04;78556.88;5076821;28;20024;-80
2023/04/04 04:28:32;;;;;;;6.25;2.15;;;;;;;-148.88;85.71;78569.09;5079304;28;20028;-79
2023/04/04 04:31:07;;;;;;;3.78;1.60;;;;;;;-148.88;86.15;78569.09;5082915;28;20031;-79
2023/04/04 04:33:33;;;;;;;6.40;1.83;;;;;;;-148.88;86.39;78558.94;5064692;28;20020;-78
2023/04/04 04:36:00;;;;;;;3.58;1.60;;;;;;;-148.88;85.39;78560.97;5065583;28;20139;-79
2023/04/04 04:38:26;;;;;;;4.75;2.00;;;;;;;-148.88;85.68;78581.28;5084404;28;20025;-79
2023/04/04 04:40:51;;;;;;;8.73;1.88;;;;;;;-148.88;87.77;78603.63;5080636;28;20457;-79
2023/04/04 04:43:16;;;;;;;2.95;1.70;;;;;;;-148.88;87.97;78597.53;5079437;28;20051;-79
2023/04/04 04:45:42;;;;;;;6.20;1.95;;;;;;;-148.88;88.34;78599.56;5078891;28;20108;-80
2023/04/04 04:48:08;;;;;;;4.28;1.88;;;;;;;-148.88;88.70;78605.69;5080275;28;20096;-80
2023/04/04 04:50:33;;;;;;;5.97;2.25;;;;;;;-148.88;88.01;78593.47;5062703;28;20021;-80
2023/04/04 04:52:58;;;;;;;4.15;1.52;;;;;;;-148.88;88.90;78609.75;5081145;28;20416;-80
2023/04/04 04:55:24;;;;;;;3.13;1.70;;;;;;;-148.88;89.48;78597.53;5082968;28;20032;-80
2023/04/04 04:57:49;;;;;;;4.85;1.98;;;;;;;-148.88;89.86;78593.47;5077938;28;20504;-78
2023/04/04 05:00:16;;;;;;;7.65;1.90;;;;;;;-148.88;89.13;78593.47;5077426;28;20028;-78
2023/04/04 05:02:41;;;;;;;5.35;2.05;;;;;;;-148.88;89.47;78605.69;5062348;28;20543;-79
2023/04/04 05:05:06;;;;;;;5.95;2.03;;;;;;;-148.88;90.79;78621.94;5081454;28;20024;-78
2023/04/04 05:07:32;;;;;;;5.40;1.88;;;;;;;-148.88;90.85;78617.88;5061826;28;20055;-79
2023/04/04 05:09:57;;;;;;;10.48;1.83;;;;;;;-148.88;91.64;78623.97;5060696;28;20052;-79
2023/04/04 05:12:22;;;;;;;3.22;1.40;;;;;;;-148.88;91.95;78628.03;5063353;28;20047;-79
2023/04/04 05:14:48;;;;;;;7.50;2.20;;;;;;;-148.88;92.42;78636.16;5082029;28;20016;-79
2023/04/04 05:17:13;;;;;;;5.03;1.80;;;;;;;-148.88;93.50;78654.47;5064197;28;20394;-79
2023/04/04 05:19:38;;;;;;;3.63;1.77;;;;;;;-148.88;94.44;78660.56;5083864;28;20074;-79
2023/04/04 05:22:06;;;;;;;6.53;1.90;;;;;;;-148.88;94.80;78654.47;5083299;28;20036;-80
2023/04/04 05:24:31;;;;;;;4.22;2.25;;;;;;;-148.88;95.14;78660.56;5084073;28;20021;-79
2023/04/04 05:26:59;;;;;;;2.75;1.55;;;;;;;-148.88;95.91;78658.53;5082789;28;20099;-79
2023/04/04 05:29:24;;;;;;;4.47;2.03;;;;;;;-148.88;96.30;78660.56;5062679;28;20020;-79
2023/04/04 05:31:50;;;;;;;4.68;1.77;;;;;;;-148.88;96.52;78658.53;5063840;28;20028;-79
2023/04/04 05:34:15;;;;;;;4.60;2.05;;;;;;;-148.88;97.13;78666.66;5081931;28;20035;-79
2023/04/04 05:36:40;;;;;;;7.85;2.30;;;;;;;-148.88;98.00;78662.59;5064049;28;20102;-79
2023/04/04 05:39:06;;;;;;;4.85;2.17;;;;;;;-148.88;98.00;78656.50;5081826;28;20028;-79
2023/04/04 05:41:32;;;;;;;8.27;1.95;;;;;;;-148.88;98.25;78658.53;5080989;28;20035;-81
2023/04/04 05:43:58;;;;;;;6.82;2.00;;;;;;;-148.88;98.97;78662.59;5062358;28;20016;-79
2023/04/04 05:46:23;;;;;;;5.95;2.08;;;;;;;-148.88;99.46;78670.72;5079624;28;20033;-79
2023/04/04 05:48:49;;;;;;;11.02;2.35;;;;;;;-148.88;99.35;78668.69;5080262;28;20028;-79
2023/04/04 05:51:15;;;;;;;6.18;3.00;;;;;;;-148.88;98.86;78674.78;5061517;28;20535;-78
2023/04/04 05:53:41;;;;;;;8.43;2.75;;;;;;;-148.88;97.93;78662.59;5079331;28;20214;-79
2023/04/04 05:56:06;;;;;;;3.75;2.08;;;;;;;-148.88;97.37;78668.69;5080000;28;20159;-79
2023/04/04 05:58:31;;;;;;;4.03;1.95;;;;;;;-148.88;96.78;78670.72;5061455;28;20028;-79
2023/04/04 06:00:56;;;;;;;5.60;2.25;;;;;;;-148.88;96.70;78662.59;5080151;28;20032;-79
2023/04/04 06:03:22;;;;;;;7.00;2.30;;;;;;;-148.88;96.34;78662.59;5061385;28;20033;-79
2023/04/04 06:05:53;;;;;;;3.97;1.83;;;;;;;-148.88;96.45;78658.53;5060996;28;20490;-79
2023/04/04 06:08:19;;;;;;;4.60;2.20;;;;;;;-148.88;96.55;78662.59;5060874;28;20086;-79
2023/04/04 06:10:44;;;;;;;4.30;1.65;;;;;;;-148.88;98.02;78656.50;5076218;28;20016;-77
2023/04/04 06:13:09;;;;;;;5.13;2.28;;;;;;;-148.88;99.01;78658.53;5076444;28;20032;-78
2023/04/04 06:15:35;;;;;;;9.18;2.58;;;;;;;-148.88;99.42;78646.31;5061671;28;20021;-78
2023/04/04 06:18:00;;;;;;;6.97;2.80;;;;;;;-148.88;100.00;78646.31;5081251;28;20084;-79
2023/04/04 06:20:25;;;;;;;6.57;2.65;;;;;;;-148.88;100.00;78634.13;5067189;28;20037;-79
2023/04/04 06:22:51;;;;;;;5.53;2.53;;;;;;;-148.88;100.00;78630.06;5084205;28;20024;-79
2023/04/04 06:25:17;;;;;;;9.43;2.97;;;;;;;-148.88;100.00;78626.00;5084144;28;20056;-79
2023/04/04 06:27:42;;;;;;;10.52;3.05;;;;;;;-148.88;100.00;78621.94;5066463;28;20035;-79
2023/04/04 06:30:09;;;;;;;5.55;2.67;;;;;;;-148.88;100.00;78613.81;5065783;28;20084;-79
2023/04/04 06:32:34;;;;;;;7.47;2.85;;;;;;;-148.88;100.00;78603.63;5066123;28;20111;-79
2023/04/04 06:34:59;;;;;;;7.30;3.05;;;;;;;-148.88;100.00;78589.41;5065745;28;20070;-79
2023/04/04 06:37:25;;;;;;;10.98;3.30;;;;;;;-148.88;100.00;78597.53;5065666;28;20031;-80
2023/04/04 06:39:50;;;;;;;8.88;3.25;;;;;;;-148.88;100.00;78593.47;5083866;28;20095;-78
2023/04/04 06:42:15;;;;;;;6.53;2.70;;;;;;;-148.88;100.00;78581.28;5066723;28;20034;-79
2023/04/04 06:44:41;;;;;;;8.52;3.38;;;;;;;-148.88;100.00;78577.22;5084250;28;20028;-79
2023/04/04 06:47:06;;;;;;;6.53;3.20;;;;;;;-148.88;100.00;78558.94;5062228;28;20486;-79
2023/04/04 06:49:32;;;;;;;8.43;3.45;;;;;;;-148.88;100.00;78540.63;5079436;28;20104;-78
2023/04/04 06:51:59;;;;;;;4.55;2.50;;;;;;;-148.88;99.96;78532.50;5063536;28;20028;-79
2023/04/04 06:54:24;;;;;;;7.53;2.88;;;;;;;-148.88;97.99;78512.19;5065336;28;20032;-78
2023/04/04 06:56:50;;;;;;;6.32;3.30;;;;;;;-148.88;97.37;78499.97;5065252;28;20320;-79
2023/04/04 06:59:16;;;;;;;8.48;4.18;;;;;;;-148.88;95.57;78493.88;5065270;28;20029;-78
2023/04/04 07:01:41;;;;;;;8.57;4.32;;;;;;;-148.88;95.57;78479.66;5084100;28;20071;-79
2023/04/04 07:04:06;;;;;;;6.95;3.00;;;;;;;-148.88;95.63;78465.44;5065982;28;20024;-79
2023/04/04 07:06:31;;;;;;;7.30;2.92;;;;;;;-148.88;95.81;78455.25;5083547;28;20521;-79
2023/04/04 07:08:57;;;;;;;6.65;3.22;;;;;;;-148.88;95.64;78449.16;5064102;28;20025;-79
2023/04/04 07:11:25;;;;;;;4.57;2.45;;;;;;;-148.88;95.50;78436.97;5082895;28;20050;-79
2023/04/04 07:13:51;;;;;;;6.47;2.97;;;;;;;-148.88;94.79;78430.88;5063759;28;20023;-79
2023/04/04 07:16:16;;;;;;;5.43;2.55;;;;;;;-148.88;94.67;78420.72;5064235;28;20107;-79
2023/04/04 07:18:43;;;;;;;9.15;3.20;;;;;;;-148.88;91.68;78420.72;5082428;28;20024;-79
2023/04/04 07:21:08;;;;;;;5.93;2.40;;;;;;;-148.88;89.92;78410.53;5064255;28;20031;-78
2023/04/04 07:23:34;;;;;;;8.95;2.60;;;;;;;-148.88;90.98;78398.34;5062443;28;20471;-79
2023/04/04 07:26:00;;;;;;;5.78;2.20;;;;;;;-148.88;89.16;78373.97;5061590;28;20657;-79
2023/04/04 07:28:25;;;;;;;6.25;2.03;;;;;;;-148.88;85.69;78367.84;5079932;28;20184;-79
2023/04/04 07:30:51;;;;;;;4.13;1.63;;;;;;;-148.88;86.28;78351.59;5063588;28;20016;-79
2023/04/04 07:33:16;;;;;;;3.42;1.60;;;;;;;-148.88;86.08;78341.44;5065148;28;20084;-79
2023/04/04 07:35:41;;;;;;;5.03;1.40;;;;;;;-148.88;86.33;78335.34;5065045;28;20021;-78
2023/04/04 07:38:07;;;;;;;4.65;2.10;;;;;;;-148.88;86.83;78312.97;5086070;28;20078;-79
2023/04/04 07:40:32;;;;;;;5.63;1.90;;;;;;;-148.88;85.22;78317.06;5064115;28;20041;-79
2023/04/04 07:42:57;;;;;;;3.13;1.95;;;;;;;-148.88;87.13;78288.59;5082654;28;20441;-79
2023/04/04 07:45:23;;;;;;;5.25;1.98;;;;;;;-148.88;85.15;78276.41;5064523;28;20036;-79
2023/04/04 07:47:48;;;;;;;3.40;1.80;;;;;;;-148.88;83.21;78254.03;5081855;28;20470;-80
2023/04/04 07:50:18;;;;;;;5.57;2.42;;;;;;;-148.88;82.34;78245.91;5064148;28;20027;-79
2023/04/04 07:52:51;;;;;;;6.18;2.95;;;;;;;-148.88;84.47;78231.69;5081635;28;20118;-77
2023/04/04 07:55:17;;;;;;;8.10;2.13;;;;;;;-148.88;82.09;78221.53;5080254;28;20382;-77
2023/04/04 07:57:43;;;;;;;6.40;2.20;;;;;;;-148.88;81.94;78211.34;5079910;28;20099;-77
2023/04/04 08:00:09;;;;;;;8.20;2.72;;;;;;;-148.88;82.79;78186.97;5059403;28;20099;-78
2023/04/04 08:02:38;;;;;;;5.25;2.08;;;;;;;-148.88;82.20;78170.72;5058552;28;20105;-78
2023/04/04 08:05:04;;;;;;;7.70;2.53;;;;;;;-148.88;80.60;78158.53;5076375;28;20038;-79
2023/04/04 08:07:29;;;;;;;3.30;1.90;;;;;;;-148.88;81.31;78154.44;5077182;28;20167;-79
2023/04/04 08:09:55;;;;;;;5.43;1.98;;;;;;;-148.88;79.81;78154.44;5078505;28;20043;-80
2023/04/04 08:12:20;;;;;;;6.35;2.17;;;;;;;-148.88;80.38;78150.38;5059733;28;20479;-79
2023/04/04 08:14:46;;;;;;;6.80;2.03;;;;;;;-148.88;81.29;78150.38;5078382;28;20047;-79
2023/04/04 08:17:11;;;;;;;5.30;1.90;;;;;;;-148.88;79.11;78136.16;5059296;28;20111;-79
2023/04/04 08:19:37;;;;;;;6.13;2.28;;;;;;;-148.88;78.50;78113.81;5076672;28;20020;-82
2023/04/04 08:22:02;;;;;;;4.72;2.15;;;;;;;-148.88;76.86;78093.47;5058467;28;20486;-79
2023/04/04 08:24:27;;;;;;;7.20;2.10;;;;;;;-148.88;77.83;78060.97;5057891;28;20028;-80
2023/04/04 08:26:53;;;;;;;6.25;1.83;;;;;;;-148.88;76.49;78050.81;5075702;28;20483;-80
2023/04/04 08:29:18;;;;;;;4.18;1.70;;;;;;;-148.88;73.77;78065.03;5057486;28;20074;-79
2023/04/04 08:31:44;;;;;;;7.45;2.25;;;;;;;-148.88;74.83;78046.72;5075695;28;20021;-78
2023/04/04 08:34:09;;;;;;;4.78;1.75;;;;;;;-148.88;71.62;78048.78;5058343;28;20487;-78
2023/04/04 08:36:34;;;;;;;8.77;2.05;;;;;;;-148.88;71.05;78022.34;5057298;28;20112;-78
2023/04/04 08:39:00;;;;;;;4.50;1.70;;;;;;;-148.88;70.21;78016.25;5075697;28;20024;-77
2023/04/04 08:41:26;;;;;;;8.27;1.73;;;;;;;-148.88;71.31;78024.38;5075301;28;20028;-77
2023/04/04 08:43:55;;;;;;;4.05;1.45;;;;;;;-148.88;69.57;78000.00;5075743;28;20035;-78
2023/04/04 08:46:24;;;;;;;6.57;1.50;;;;;;;-148.88;65.91;78032.50;5076238;28;20024;-77
2023/04/04 08:48:55;;;;;;;4.85;1.60;;;;;;;-148.88;64.51;78008.13;5076250;28;20024;-78
2023/04/04 08:51:21;;;;;;;4.00;1.35;;;;;;;-148.88;64.13;77997.97;5077090;28;20029;-80
2023/04/04 08:53:47;;;;;;;5.68;1.58;;;;;;;-148.88;67.04;77967.47;5057429;28;20027;-81
2023/04/04 08:56:13;;;;;;;2.53;1.25;;;;;;;-148.88;65.37;77957.31;5060722;28;20025;-79
2023/04/04 08:58:38;;;;;;;3.78;1.48;;;;;;;-148.88;61.70;77955.28;5076516;28;20432;-79
2023/04/04 09:01:05;;;;;;;4.53;1.73;;;;;;;-148.88;69.57;77910.56;5058043;28;20024;-80
2023/04/04 09:03:33;;;;;;;3.70;1.40;;;;;;;-148.88;63.28;77898.38;5076563;28;20108;-80
2023/04/04 09:05:58;;;;;;;2.50;1.38;;;;;;;-148.88;60.96;77890.25;5058379;28;20211;-80
2023/04/04 09:08:24;;;;;;;3.35;1.20;;;;;;;-148.88;63.44;77837.41;5076900;28;20565;-79
2023/04/04 09:10:51;;;;;;;3.78;1.23;;;;;;;-148.88;57.21;77825.22;5058872;28;20016;-80
2023/04/04 09:13:16;;;;;;;3.85;1.90;;;;;;;-148.88;55.26;77829.28;5057325;28;20031;-79
2023/04/04 09:15:46;;;;;;;2.28;1.17;;;;;;;-148.88;54.17;77825.22;5075129;28;20056;-80
2023/04/04 09:18:11;;;;;;;4.95;1.27;;;;;;;-148.88;60.97;77772.38;5057200;28;20032;-79
2023/04/04 09:20:39;;;;;;;2.97;1.25;;;;;;;-148.88;54.38;77721.56;5057101;28;20018;-80
2023/04/04 09:23:06;;;;;;;4.43;1.42;;;;;;;-148.88;52.15;77691.09;5075720;28;20059;-79
2023/04/04 09:25:32;;;;;;;3.65;1.60;;;;;;;-148.88;52.13;77709.38;5057872;28;20035;-80
2023/04/04 09:27:58;;;;;;;6.13;1.60;;;;;;;-148.88;52.21;77654.50;5061154;28;20020;-80
2023/04/04 09:30:24;;;;;;;4.47;1.33;;;;;;;-148.88;52.85;77607.78;5059212;28;20505;-80
2023/04/04 09:32:49;;;;;;;4.28;1.42;;;;;;;-148.88;49.28;77642.31;5059822;28;20025;-80
2023/04/04 09:35:15;;;;;;;4.40;1.92;;;;;;;-148.88;50.63;77703.28;5059435;28;20111;-80
2023/04/04 09:37:41;;;;;;;5.22;1.75;;;;;;;-148.88;52.18;77685.00;5078047;28;20024;-80
2023/04/04 09:40:09;;;;;;;5.35;1.40;;;;;;;-148.88;50.97;77715.47;5077222;28;20044;-82
2023/04/04 09:42:34;;;;;;;3.95;1.15;;;;;;;-148.88;54.05;77699.22;5057835;28;20078;-82
2023/04/04 09:45:01;;;;;;;2.78;1.02;;;;;;;-148.88;52.23;77715.47;5057702;28;20028;-82
2023/04/04 09:47:31;;;;;;;4.32;1.20;;;;;;;-148.88;49.47;77674.84;5058699;28;20024;-82
2023/04/04 09:50:00;;;;;;;7.45;1.52;;;;;;;-148.88;50.18;77581.34;5075012;28;20016;-81
2023/04/04 09:52:26;;;;;;;3.47;1.40;;;;;;;-148.88;49.88;77491.94;5056522;28;20119;-83
2023/04/04 09:54:58;;;;;;;4.47;1.27;;;;;;;-148.88;47.87;77447.22;5062888;28;20055;-83
2023/04/04 09:57:27;;;;;;;4.75;1.65;;;;;;;-148.88;48.55;77457.41;5062985;28;20398;-83
2023/04/04 09:59:56;;;;;;;3.58;1.40;;;;;;;-148.88;45.69;77522.41;5060279;28;20021;-84
2023/04/04 10:02:21;;;;;;;6.85;1.30;;;;;;;-148.88;46.67;77522.41;5078536;28;20024;-84
2023/04/04 10:04:47;;;;;;;3.70;1.50;;;;;;;-148.88;44.53;77439.09;5060071;28;20477;-84
2023/04/04 10:07:13;;;;;;;3.33;1.50;;;;;;;-148.88;44.34;77386.28;5060456;28;20047;-84
2023/04/04 10:09:39;;;;;;;3.40;1.30;;;;;;;-148.88;44.78;77386.28;5060454;28;20024;-81
2023/04/04 10:12:08;;;;;;;3.63;1.42;;;;;;;-148.88;43.85;77439.09;5061330;28;20031;-84
2023/04/04 10:14:36;;;;;;;5.25;2.05;;;;;;;-148.88;44.67;77455.38;5062212;28;20032;-83
2023/04/04 10:17:08;;;;;;;5.50;1.73;;;;;;;-148.88;46.57;77479.75;5081564;28;20029;-82
2023/04/04 10:19:36;;;;;;;4.70;1.83;;;;;;;-148.88;47.15;77418.78;5081285;28;20040;-82
2023/04/04 10:22:02;;;;;;;3.42;1.30;;;;;;;-148.88;45.36;77337.50;5061893;28;20380;-83
2023/04/04 10:24:27;;;;;;;5.45;1.77;;;;;;;-148.88;46.03;77337.50;5080252;28;20033;-83
2023/04/04 10:26:54;;;;;;;8.50;1.90;;;;;;;-148.88;44.97;77363.91;5077125;28;20047;-83
2023/04/04 10:29:20;;;;;;;4.32;1.42;;;;;;;-148.88;43.44;77309.06;5078449;28;20035;-82
2023/04/04 10:31:48;;;;;;;5.15;2.10;;;;;;;-148.88;42.64;77270.44;5079030;28;20164;-83
2023/04/04 10:34:32;;;;;;;3.55;1.60;;;;;;;-148.88;44.74;77276.53;5078341;28;20043;-82
2023/04/04 10:37:07;;;;;;;8.45;1.77;;;;;;;-148.88;43.44;77300.94;5063636;28;20505;-83
2023/04/04 10:39:38;;;;;;;3.83;1.65;;;;;;;-148.88;42.80;77382.22;5081713;28;20021;-82
2023/04/04 10:42:06;;;;;;;4.03;1.73;;;;;;;-148.88;46.78;77443.16;5062344;28;20038;-84
2023/04/04 10:44:33;;;;;;;4.43;2.50;;;;;;;-148.88;44.63;77392.38;5063182;28;20020;-82
2023/04/04 10:47:06;;;;;;;3.60;1.60;;;;;;;-148.88;42.80;77359.84;5063552;28;20096;-82
2023/04/04 10:49:33;;;;;;;3.95;1.40;;;;;;;-148.88;44.28;77378.16;5083827;28;20029;-83
2023/04/04 10:51:58;;;;;;;4.97;2.33;;;;;;;-148.88;42.95;77290.75;5065117;28;20031;-83
2023/04/04 10:54:27;;;;;;;3.60;1.52;;;;;;;-148.88;42.44;77223.72;5083457;28;20024;-83
2023/04/04 10:56:55;;;;;;;3.80;1.50;;;;;;;-148.88;43.51;77201.34;5065986;28;20094;-83
2023/04/04 10:59:24;;;;;;;5.68;1.77;;;;;;;-148.88;41.44;77162.75;5066971;28;20486;-83
2023/04/04 11:02:00;;;;;;;4.38;2.33;;;;;;;-148.88;40.33;77168.84;5065588;28;20020;-82
2023/04/04 11:04:33;;;;;;;3.95;2.40;;;;;;;-148.88;40.66;77085.53;5081313;28;20095;-83
2023/04/04 11:07:11;;;;;;;3.37;1.57;;;;;;;-148.88;38.00;77183.06;5082004;28;20494;-82
2023/04/04 11:09:55;;;;;;;7.43;2.08;;;;;;;-148.88;40.65;77174.94;5064051;28;20078;-85
2023/04/04 11:12:35;;;;;;;6.20;2.25;;;;;;;-148.88;39.61;77211.53;5082332;28;20020;-83
2023/04/04 11:15:11;;;;;;;4.82;1.88;;;;;;;-148.88;39.77;77292.81;5082219;28;20082;-83
2023/04/04 11:17:49;;;;;;;3.53;1.92;;;;;;;-148.88;40.92;77256.22;5082723;28;20020;-81